createdAt,value
2018-01-07T00:00:34.527Z,93.70
2018-01-07T00:03:01.488Z,93.50
2018-01-07T00:05:28.374Z,93.60
2018-01-07T00:07:55.250Z,93.30
2018-01-07T00:10:22.132Z,93.30
2018-01-07T00:12:48.978Z,93.80
2018-01-07T00:15:15.858Z,93.80
2018-01-07T00:17:42.720Z,93.90
2018-01-07T00:20:09.568Z,93.70
2018-01-07T00:22:36.438Z,93.70
2018-01-07T00:25:04.694Z,94.10
2018-01-07T00:27:31.542Z,94.10
2018-01-07T00:29:58.410Z,94.00
2018-01-07T00:32:26.050Z,94.20
2018-01-07T00:34:52.923Z,94.20
2018-01-07T00:37:19.897Z,94.10
2018-01-07T00:39:47.596Z,94.10
2018-01-07T00:42:14.662Z,94.10
2018-01-07T00:44:41.604Z,94.20
2018-01-07T00:47:08.449Z,94.50
2018-01-07T00:49:35.294Z,94.10
2018-01-07T00:52:03.084Z,93.80
2018-01-07T00:54:30.054Z,93.80
2018-01-07T00:56:57.154Z,93.70
2018-01-07T00:59:24.898Z,93.70
2018-01-07T01:01:51.818Z,93.70
2018-01-07T01:04:18.766Z,93.80
2018-01-07T01:06:45.699Z,93.80
2018-01-07T01:09:12.831Z,94.40
2018-01-07T01:11:39.972Z,95.10
2018-01-07T01:14:07.022Z,94.70
2018-01-07T01:16:34.762Z,94.40
2018-01-07T01:19:01.838Z,94.40
2018-01-07T01:21:28.733Z,94.50
2018-01-07T01:23:55.634Z,94.30
2018-01-07T01:26:22.634Z,94.10
2018-01-07T01:28:50.222Z,93.70
2018-01-07T01:31:17.118Z,93.70
2018-01-07T01:33:44.622Z,93.80
2018-01-07T01:36:12.227Z,93.80
2018-01-07T01:38:39.246Z,93.70
2018-01-07T01:41:06.150Z,94.10
2018-01-07T01:43:33.359Z,93.80
2018-01-07T01:46:00.315Z,93.90
2018-01-07T01:48:27.290Z,94.20
2018-01-07T01:50:54.214Z,93.90
2018-01-07T01:53:21.074Z,93.70
2018-01-07T01:55:58.581Z,93.70
2018-01-07T01:58:25.586Z,93.70
2018-01-07T02:00:52.626Z,93.50
2018-01-07T02:03:20.367Z,93.70
2018-01-07T02:05:47.934Z,93.60
2018-01-07T02:08:15.529Z,93.70
2018-01-07T02:10:42.590Z,93.70
2018-01-07T02:13:09.521Z,93.50
2018-01-07T02:15:36.589Z,93.40
2018-01-07T02:18:04.224Z,93.70
2018-01-07T02:20:31.069Z,93.70
2018-01-07T02:22:58.034Z,93.70
2018-01-07T02:25:25.023Z,93.90
2018-01-07T02:27:51.870Z,93.90
2018-01-07T02:30:18.725Z,93.90
2018-01-07T02:32:46.047Z,94.20
2018-01-07T02:35:13.080Z,94.20
2018-01-07T02:37:40.776Z,94.10
2018-01-07T02:40:07.751Z,94.10
2018-01-07T02:42:34.652Z,94.30
2018-01-07T02:45:01.532Z,94.50
2018-01-07T02:47:28.487Z,94.70
2018-01-07T02:49:55.558Z,94.50
2018-01-07T02:52:23.186Z,93.90
2018-01-07T02:54:50.114Z,93.90
2018-01-07T02:57:17.197Z,94.00
2018-01-07T02:59:44.311Z,93.90
2018-01-07T03:02:11.150Z,93.50
2018-01-07T03:04:38.162Z,93.70
2018-01-07T03:07:05.774Z,93.70
2018-01-07T03:09:32.813Z,93.70
2018-01-07T03:11:59.747Z,94.00
2018-01-07T03:14:26.825Z,94.10
2018-01-07T03:16:54.556Z,93.70
2018-01-07T03:19:22.286Z,93.70
2018-01-07T03:21:51.363Z,93.60
2018-01-07T03:24:18.393Z,93.80
2018-01-07T03:26:45.353Z,93.70
2018-01-07T03:29:12.162Z,93.90
2018-01-07T03:31:39.027Z,93.90
2018-01-07T03:34:05.917Z,93.80
2018-01-07T03:36:33.558Z,94.10
2018-01-07T03:39:00.649Z,93.70
2018-01-07T03:41:27.510Z,93.70
2018-01-07T03:43:54.389Z,93.40
2018-01-07T03:46:21.259Z,93.40
2018-01-07T03:48:48.147Z,93.40
2018-01-07T03:51:15.185Z,93.30
2018-01-07T03:53:42.053Z,93.20
2018-01-07T03:56:09.162Z,93.70
2018-01-07T03:58:36.067Z,93.20
2018-01-07T04:01:02.942Z,93.10
2018-01-07T04:03:29.806Z,93.40
2018-01-07T04:05:56.846Z,93.50
2018-01-07T04:08:23.847Z,93.50
2018-01-07T04:10:50.807Z,93.40
2018-01-07T04:13:18.650Z,93.40
2018-01-07T04:15:45.614Z,93.30
2018-01-07T04:18:13.422Z,93.80
2018-01-07T04:20:40.442Z,93.80
2018-01-07T04:23:07.534Z,93.90
2018-01-07T04:25:34.539Z,93.70
2018-01-07T04:28:01.566Z,93.70
2018-01-07T04:30:28.483Z,93.60
2018-01-07T04:32:55.488Z,93.60
2018-01-07T04:35:23.186Z,93.30
2018-01-07T04:37:50.046Z,93.20
2018-01-07T04:40:17.046Z,93.80
2018-01-07T04:42:44.033Z,93.30
2018-01-07T04:45:11.971Z,93.30
2018-01-07T04:47:38.916Z,93.40
2018-01-07T04:50:05.886Z,93.40
2018-01-07T04:52:32.815Z,93.40
2018-01-07T04:54:59.705Z,94.00
2018-01-07T04:57:27.456Z,94.00
2018-01-07T04:59:54.467Z,93.90
2018-01-07T05:02:21.517Z,93.90
2018-01-07T05:04:48.398Z,94.20
2018-01-07T05:07:15.294Z,94.10
2018-01-07T05:09:42.187Z,94.10
2018-01-07T05:12:09.159Z,93.70
2018-01-07T05:14:36.871Z,93.70
2018-01-07T05:17:03.734Z,93.70
2018-01-07T05:19:30.708Z,93.60
2018-01-07T05:21:57.563Z,93.50
2018-01-07T05:24:24.398Z,93.60
2018-01-07T05:26:51.370Z,93.80
2018-01-07T05:29:18.199Z,93.90
2018-01-07T05:31:45.770Z,94.20
2018-01-07T05:34:12.674Z,94.10
2018-01-07T05:36:40.246Z,93.80
2018-01-07T05:39:07.265Z,93.80
2018-01-07T05:41:34.872Z,94.00
2018-01-07T05:44:01.710Z,93.70
2018-01-07T05:46:28.549Z,93.90
2018-01-07T05:48:55.422Z,93.90
2018-01-07T05:51:22.302Z,93.70
2018-01-07T05:53:49.965Z,93.70
2018-01-07T05:56:16.802Z,94.00
2018-01-07T05:58:43.738Z,94.00
2018-01-07T06:01:11.485Z,93.70
2018-01-07T06:03:38.982Z,93.70
2018-01-07T06:06:07.075Z,93.40
2018-01-07T06:08:34.027Z,93.60
2018-01-07T06:11:00.952Z,93.70
2018-01-07T06:13:27.820Z,93.70
2018-01-07T06:15:54.730Z,93.60
2018-01-07T06:18:21.701Z,93.60
2018-01-07T06:20:48.622Z,94.10
2018-01-07T06:23:15.667Z,93.90
2018-01-07T06:25:42.648Z,94.10
2018-01-07T06:28:09.706Z,94.00
2018-01-07T06:30:36.656Z,94.00
2018-01-07T06:33:04.190Z,93.90
2018-01-07T06:35:31.252Z,94.00
2018-01-07T06:37:58.103Z,93.90
2018-01-07T06:40:25.127Z,93.70
2018-01-07T06:42:52.122Z,93.70
2018-01-07T06:45:19.752Z,94.10
2018-01-07T06:47:47.302Z,94.00
2018-01-07T06:50:15.014Z,94.10
2018-01-07T06:52:42.675Z,94.00
2018-01-07T06:55:09.751Z,94.00
2018-01-07T06:57:38.040Z,93.80
2018-01-07T07:00:05.717Z,93.80
2018-01-07T07:02:32.679Z,93.80
2018-01-07T07:04:59.614Z,93.90
2018-01-07T07:07:26.534Z,93.50
2018-01-07T07:09:53.417Z,93.60
2018-01-07T07:12:20.490Z,93.70
2018-01-07T07:14:47.390Z,93.80
2018-01-07T07:17:14.394Z,93.80
2018-01-07T07:19:42.131Z,93.80
2018-01-07T07:22:09.063Z,93.70
2018-01-07T07:24:37.039Z,93.80
2018-01-07T07:27:03.915Z,94.00
2018-01-07T07:29:31.562Z,94.00
2018-01-07T07:31:58.511Z,93.90
2018-01-07T07:34:25.446Z,94.10
2018-01-07T07:48:43.211Z,94.10
2018-01-07T07:51:28.808Z,93.70
2018-01-07T07:53:58.338Z,93.70
2018-01-07T07:56:25.207Z,93.50
2018-01-07T07:58:55.826Z,93.80
2018-01-07T08:01:31.370Z,93.80
2018-01-07T08:03:58.262Z,93.90
2018-01-07T08:09:28.512Z,93.70
2018-01-07T08:11:58.276Z,93.80
2018-01-07T08:14:46.444Z,94.00
2018-01-07T08:17:22.257Z,94.10
2018-01-07T08:19:49.895Z,94.30
2018-01-07T08:22:16.954Z,94.30
2018-01-07T08:24:44.607Z,94.60
2018-01-07T08:27:11.535Z,94.40
2018-01-07T08:29:38.638Z,94.00
2018-01-07T08:32:05.682Z,94.00
2018-01-07T08:34:32.598Z,94.30
2018-01-07T08:36:59.608Z,94.20
2018-01-07T08:39:26.530Z,94.10
2018-01-07T08:41:53.477Z,94.00
2018-01-07T08:44:20.555Z,94.30
2018-01-07T08:46:47.542Z,94.50
2018-01-07T08:49:14.661Z,94.70
2018-01-07T08:51:41.730Z,94.60
2018-01-07T08:54:08.790Z,94.40
2018-01-07T08:56:35.958Z,93.90
2018-01-07T08:59:02.878Z,93.80
2018-01-07T09:01:30.122Z,93.90
2018-01-07T09:03:57.241Z,93.70
2018-01-07T09:06:24.123Z,93.90
2018-01-07T09:08:51.766Z,93.80
2018-01-07T09:11:18.638Z,93.40
2018-01-07T09:13:45.542Z,93.40
2018-01-07T09:16:12.446Z,93.20
2018-01-07T09:18:39.354Z,93.00
2018-01-07T09:21:06.218Z,92.90
2018-01-07T09:23:33.121Z,93.00
2018-01-07T09:26:00.008Z,92.90
2018-01-07T09:28:26.881Z,92.20
2018-01-07T09:30:54.670Z,92.40
2018-01-07T09:33:21.642Z,92.40
2018-01-07T09:35:48.493Z,92.50
2018-01-07T09:38:16.146Z,91.10
2018-01-07T09:40:42.983Z,91.10
2018-01-07T09:43:09.874Z,90.40
2018-01-07T09:45:37.466Z,90.00
2018-01-07T09:48:04.362Z,90.00
2018-01-07T09:50:31.966Z,88.40
2018-01-07T09:52:58.847Z,88.40
2018-01-07T09:55:25.778Z,88.60
2018-01-07T09:57:52.694Z,88.20
2018-01-07T10:00:19.567Z,87.80
2018-01-07T10:02:47.275Z,89.20
2018-01-07T10:05:14.143Z,89.00
2018-01-07T10:07:41.026Z,89.00
2018-01-07T10:10:07.916Z,87.60
2018-01-07T10:12:34.857Z,87.20
2018-01-07T10:15:01.804Z,87.10
2018-01-07T10:17:28.652Z,86.40
2018-01-07T10:19:55.536Z,85.90
2018-01-07T10:22:23.154Z,82.50
2018-01-07T10:24:50.100Z,82.30
2018-01-07T10:27:17.125Z,82.20
2018-01-07T10:29:43.990Z,80.70
2018-01-07T10:32:10.830Z,79.00
2018-01-07T10:34:38.155Z,77.00
2018-01-07T10:37:05.165Z,74.30
2018-01-07T10:39:32.938Z,65.80
2018-01-07T10:41:59.874Z,65.70
2018-01-07T10:44:26.838Z,61.60
2018-01-07T10:46:53.830Z,58.70
2018-01-07T10:49:20.932Z,54.90
2018-01-07T10:51:47.793Z,54.80
2018-01-07T10:54:14.789Z,54.20
2018-01-07T10:56:41.850Z,53.20
2018-01-07T10:59:08.706Z,53.30
2018-01-07T11:01:41.770Z,54.10
2018-01-07T11:04:08.858Z,53.80
2018-01-07T11:06:35.946Z,53.90
2018-01-07T11:09:03.497Z,54.10
2018-01-07T11:11:30.758Z,54.60
2018-01-07T11:13:57.819Z,53.80
2018-01-07T11:16:24.671Z,52.60
2018-01-07T11:18:52.576Z,49.40
2018-01-07T11:21:19.402Z,49.30
2018-01-07T11:23:46.591Z,46.50
2018-01-07T11:26:14.378Z,42.40
2018-01-07T11:28:41.442Z,42.30
2018-01-07T11:31:08.419Z,42.10
2018-01-07T11:33:35.377Z,42.10
2018-01-07T11:36:02.246Z,41.70
2018-01-07T11:38:29.258Z,43.10
2018-01-07T11:40:56.086Z,43.70
2018-01-07T11:43:24.613Z,41.90
2018-01-07T11:45:51.522Z,41.90
2018-01-07T11:48:18.366Z,41.80
2018-01-07T11:50:45.235Z,40.80
2018-01-07T11:53:12.230Z,42.00
2018-01-07T11:55:39.111Z,41.70
2018-01-07T11:58:06.149Z,41.40
2018-01-07T12:00:33.038Z,39.70
2018-01-07T12:02:59.999Z,40.40
2018-01-07T12:05:26.858Z,40.30
2018-01-07T12:07:53.718Z,38.40
2018-01-07T12:10:20.920Z,36.80
2018-01-07T12:12:48.574Z,37.60
2018-01-07T12:15:16.442Z,36.90
2018-01-07T12:17:43.338Z,36.30
2018-01-07T12:20:10.904Z,37.60
2018-01-07T12:22:37.831Z,38.20
2018-01-07T12:25:04.752Z,37.50
2018-01-07T12:27:32.435Z,41.80
2018-01-07T12:30:00.125Z,42.60
2018-01-07T12:32:27.189Z,42.50
2018-01-07T12:34:54.117Z,41.10
2018-01-07T12:37:20.938Z,39.20
2018-01-07T12:39:47.802Z,38.20
2018-01-07T12:42:25.043Z,37.70
2018-01-07T12:44:53.558Z,40.10
2018-01-07T12:47:20.529Z,40.10
2018-01-07T12:49:48.258Z,37.50
2018-01-07T12:52:16.456Z,38.20
2018-01-07T12:54:44.887Z,38.20
2018-01-07T12:57:12.654Z,39.30
2018-01-07T12:59:39.673Z,39.30
2018-01-07T13:02:06.499Z,40.90
2018-01-07T13:04:33.594Z,42.30
2018-01-07T13:07:00.811Z,43.80
2018-01-07T13:09:27.746Z,46.00
2018-01-07T13:11:54.630Z,48.30
2018-01-07T13:14:21.642Z,49.40
2018-01-07T13:16:48.631Z,50.00
2018-01-07T13:19:15.506Z,51.30
2018-01-07T13:21:42.407Z,52.10
2018-01-07T13:24:09.241Z,52.70
2018-01-07T13:26:37.494Z,54.90
2018-01-07T13:29:04.627Z,54.80
2018-01-07T13:31:31.529Z,57.60
2018-01-07T13:33:58.445Z,58.60
2018-01-07T13:36:25.632Z,59.20
2018-01-07T13:38:53.108Z,59.10
2018-01-07T13:41:20.050Z,59.40
2018-01-07T13:43:47.182Z,59.70
2018-01-07T13:46:14.310Z,60.20
2018-01-07T13:48:41.986Z,60.90
2018-01-07T13:51:08.878Z,60.80
2018-01-07T13:53:35.985Z,60.70
2018-01-07T13:56:03.179Z,60.70
2018-01-07T13:58:30.794Z,62.00
2018-01-07T14:00:57.964Z,62.00
2018-01-07T14:03:24.910Z,63.10
2018-01-07T14:05:52.553Z,64.50
2018-01-07T14:08:19.478Z,64.50
2018-01-07T14:10:47.158Z,67.20
2018-01-07T14:13:14.031Z,67.10
2018-01-07T14:15:40.914Z,67.40
2018-01-07T14:18:08.480Z,68.50
2018-01-07T14:20:35.354Z,68.40
2018-01-07T14:23:02.210Z,68.80
2018-01-07T14:25:29.083Z,69.80
2018-01-07T14:27:56.707Z,71.40
2018-01-07T14:30:23.538Z,71.30
2018-01-07T14:32:50.402Z,72.10
2018-01-07T14:35:17.645Z,72.50
2018-01-07T14:37:44.586Z,73.00
2018-01-07T14:40:11.816Z,74.10
2018-01-07T14:42:38.691Z,74.80
2018-01-07T14:45:05.591Z,76.60
2018-01-07T14:47:33.526Z,78.20
2018-01-07T14:50:00.582Z,78.20
2018-01-07T14:52:28.515Z,78.30
2018-01-07T14:54:55.450Z,78.90
2018-01-07T14:57:22.530Z,79.50
2018-01-07T14:59:49.662Z,80.30
2018-01-07T15:02:16.840Z,80.10
2018-01-07T15:04:43.892Z,80.60
2018-01-07T15:07:10.893Z,81.30
2018-01-07T15:09:49.298Z,81.70
2018-01-07T15:31:56.847Z,85.30
2018-01-07T15:34:24.481Z,86.30
2018-01-07T15:36:51.946Z,85.40
2018-01-07T15:39:18.937Z,87.50
2018-01-07T15:41:45.809Z,87.30
2018-01-07T15:44:13.027Z,87.40
2018-01-07T15:46:40.862Z,88.00
2018-01-07T15:49:08.614Z,88.00
2018-01-07T15:51:35.446Z,89.00
2018-01-07T15:54:02.346Z,89.50
2018-01-07T15:56:29.975Z,89.30
2018-01-07T15:58:57.637Z,90.00
2018-01-07T16:01:24.525Z,90.00
2018-01-07T16:03:51.671Z,90.20
2018-01-07T16:06:18.877Z,90.20
2018-01-07T16:08:45.799Z,90.00
2018-01-07T16:11:12.821Z,89.90
2018-01-07T16:13:39.723Z,90.00
2018-01-07T16:16:06.621Z,90.10
2018-01-07T16:18:33.639Z,90.20
2018-01-07T16:21:00.722Z,90.20
2018-01-07T16:23:27.606Z,90.40
2018-01-07T16:25:54.854Z,91.00
2018-01-07T16:28:21.946Z,91.40
2018-01-07T16:30:49.053Z,92.10
2018-01-07T16:33:16.807Z,91.80
2018-01-07T16:35:43.705Z,92.10
2018-01-07T16:38:10.825Z,91.60
2018-01-07T16:40:38.250Z,92.00
2018-01-07T16:43:05.122Z,92.00
2018-01-07T16:45:32.398Z,92.30
2018-01-07T16:47:59.754Z,92.50
2018-01-07T16:50:28.299Z,92.70
2018-01-07T16:52:56.807Z,92.10
2018-01-07T16:55:24.763Z,92.10
2018-01-07T16:57:51.775Z,92.00
2018-01-07T17:00:18.936Z,91.70
2018-01-07T17:02:45.896Z,91.80
2018-01-07T17:05:13.077Z,92.00
2018-01-07T17:07:40.818Z,92.20
2018-01-07T17:10:08.195Z,92.10
2018-01-07T17:12:35.651Z,92.20
2018-01-07T17:15:02.911Z,91.80
2018-01-07T17:17:29.881Z,92.20
2018-01-07T17:19:56.735Z,92.30
2018-01-07T17:22:23.570Z,92.30
2018-01-07T17:24:51.203Z,92.50
2018-01-07T17:27:19.369Z,92.50
2018-01-07T17:29:47.075Z,92.50
2018-01-07T17:32:14.912Z,92.30
2018-01-07T17:34:42.239Z,92.30
2018-01-07T17:37:09.306Z,92.10
2018-01-07T17:39:36.342Z,92.30
2018-01-07T17:42:03.267Z,92.10
2018-01-07T17:44:30.644Z,92.50
2018-01-07T17:46:57.877Z,92.50
2018-01-07T17:49:25.248Z,92.60
2018-01-07T17:51:52.953Z,92.40
2018-01-07T17:54:20.242Z,92.40
2018-01-07T17:56:48.050Z,92.90
2018-01-07T17:59:15.134Z,92.90
2018-01-07T18:01:42.537Z,92.60
2018-01-07T18:04:10.271Z,92.50
2018-01-07T18:06:37.534Z,92.40
2018-01-07T18:09:04.646Z,92.50
2018-01-07T18:11:31.907Z,92.10
2018-01-07T18:13:59.094Z,92.50
2018-01-07T18:16:26.435Z,92.80
2018-01-07T18:18:54.148Z,92.90
2018-01-07T18:21:21.440Z,92.90
2018-01-07T18:23:48.671Z,92.70
2018-01-07T18:26:15.842Z,92.90
2018-01-07T18:28:42.746Z,92.60
2018-01-07T18:31:10.846Z,92.90
2018-01-07T18:33:38.165Z,92.90
2018-01-07T18:36:05.106Z,92.90
2018-01-07T18:38:32.154Z,92.80
2018-01-07T18:40:59.155Z,93.10
2018-01-07T18:43:26.250Z,93.10
2018-01-07T18:45:53.386Z,93.00
2018-01-07T18:48:20.522Z,93.00
2018-01-07T18:50:48.807Z,93.20
2018-01-07T18:53:15.914Z,93.20
2018-01-07T18:55:43.083Z,93.30
2018-01-07T18:58:10.156Z,93.50
2018-01-07T19:00:37.238Z,92.90
2018-01-07T19:03:04.989Z,92.80
2018-01-07T19:05:32.074Z,92.90
2018-01-07T19:07:58.998Z,93.30
2018-01-07T19:10:26.894Z,93.40
2018-01-07T19:12:53.739Z,93.60
2018-01-07T19:15:20.866Z,93.60
2018-01-07T19:17:47.928Z,93.40
2018-01-07T19:20:14.959Z,93.50
2018-01-07T19:22:42.239Z,93.50
2018-01-07T19:25:09.923Z,93.50
2018-01-07T19:27:37.195Z,93.50
2018-01-07T19:30:04.186Z,93.80
2018-01-07T19:32:31.067Z,93.70
2018-01-07T19:34:58.201Z,93.40
2018-01-07T19:37:25.842Z,94.10
2018-01-07T19:39:52.812Z,94.10
2018-01-07T19:42:19.882Z,94.00
2018-01-07T19:44:47.698Z,93.80
2018-01-07T19:47:14.788Z,93.80
2018-01-07T19:49:42.591Z,93.60
2018-01-07T19:52:09.714Z,93.60
2018-01-07T19:54:36.940Z,93.50
2018-01-07T19:57:04.615Z,93.60
2018-01-07T19:59:32.247Z,93.40
2018-01-07T20:02:00.251Z,93.40
2018-01-07T20:04:27.094Z,93.30
2018-01-07T20:06:53.972Z,93.70
2018-01-07T20:09:21.186Z,93.30
2018-01-07T20:11:48.250Z,93.60
2018-01-07T20:14:16.838Z,93.70
2018-01-07T20:16:43.976Z,93.60
2018-01-07T20:19:11.132Z,93.60
2018-01-07T20:21:38.289Z,93.50
2018-01-07T20:24:05.700Z,93.60
2018-01-07T20:26:33.588Z,93.50
2018-01-07T20:29:00.876Z,93.50
2018-01-07T20:31:28.684Z,93.50
2018-01-07T20:33:55.881Z,93.50
2018-01-07T20:36:23.083Z,93.70
2018-01-07T20:38:50.153Z,94.10
2018-01-07T20:41:17.388Z,93.60
2018-01-07T20:43:44.607Z,93.70
2018-01-07T20:46:11.853Z,93.80
2018-01-07T20:48:39.653Z,93.70
2018-01-07T20:51:07.416Z,93.90
2018-01-07T20:53:34.449Z,93.90
2018-01-07T20:56:01.378Z,93.70
2018-01-07T20:58:28.290Z,93.70
2018-01-07T21:00:55.977Z,94.10
2018-01-07T21:03:22.881Z,94.00
2018-01-07T21:05:54.382Z,94.40
2018-01-07T21:08:21.267Z,94.20
2018-01-07T21:10:48.149Z,94.50
2018-01-07T21:13:15.833Z,94.20
2018-01-07T21:15:43.199Z,94.20
2018-01-07T21:18:10.899Z,94.40
2018-01-07T21:20:38.105Z,94.40
2018-01-07T21:23:05.791Z,94.30
2018-01-07T21:25:33.144Z,94.20
2018-01-07T21:28:00.018Z,94.00
2018-01-07T21:30:27.713Z,93.80
2018-01-07T21:32:55.554Z,93.80
2018-01-07T21:35:22.695Z,93.60
2018-01-07T21:37:49.626Z,93.60
2018-01-07T21:40:18.339Z,93.70
2018-01-07T21:42:45.442Z,93.70
2018-01-07T21:45:12.422Z,93.70
2018-01-07T21:47:39.451Z,94.10
2018-01-07T21:50:06.538Z,94.00
2018-01-07T21:52:33.503Z,93.80
2018-01-07T21:55:00.461Z,93.60
2018-01-07T21:57:27.346Z,93.90
2018-01-07T22:02:50.663Z,93.70
2018-01-07T22:05:17.628Z,93.70
2018-01-07T22:07:44.501Z,93.80
2018-01-07T22:10:11.426Z,93.90
2018-01-07T22:12:38.331Z,93.80
2018-01-07T22:15:06.010Z,93.90
2018-01-07T22:17:32.878Z,93.90
2018-01-07T22:20:00.491Z,94.00
2018-01-07T22:22:28.154Z,94.30
2018-01-07T22:24:55.075Z,94.30
2018-01-07T22:27:21.921Z,94.30
2018-01-07T22:29:48.800Z,94.10
2018-01-07T22:32:16.390Z,94.00
2018-01-07T22:34:43.245Z,93.90
2018-01-07T22:37:10.114Z,94.10
2018-01-07T22:39:36.990Z,94.10
2018-01-07T22:42:03.865Z,94.10
2018-01-07T22:44:30.725Z,94.10
2018-01-07T22:46:57.582Z,94.30
2018-01-07T22:49:24.430Z,94.30
2018-01-07T22:51:51.302Z,94.20
2018-01-07T22:54:18.185Z,94.00
2018-01-07T22:56:45.041Z,93.80
2018-01-07T22:59:11.888Z,93.50
2018-01-07T23:01:38.730Z,93.40
2018-01-07T23:04:05.622Z,93.60
2018-01-07T23:06:32.541Z,93.90
2018-01-07T23:08:59.391Z,94.00
2018-01-07T23:11:27.006Z,94.00
2018-01-07T23:13:53.866Z,94.00
2018-01-07T23:16:20.794Z,94.30
2018-01-07T23:18:47.655Z,94.30
2018-01-07T23:21:14.498Z,94.10
2018-01-07T23:23:41.381Z,94.00
2018-01-07T23:26:08.251Z,93.90
2018-01-07T23:28:35.242Z,93.80
2018-01-07T23:31:02.082Z,93.60
2018-01-07T23:33:28.921Z,93.80
2018-01-07T23:35:56.598Z,93.90
2018-01-07T23:40:57.114Z,94.60
2018-01-07T23:43:23.999Z,94.50
2018-01-07T23:45:50.862Z,94.60
2018-01-07T23:48:17.738Z,95.20
2018-01-07T23:50:44.602Z,95.00
2018-01-07T23:53:11.470Z,95.00
2018-01-07T23:55:38.342Z,94.90
2018-01-07T23:58:05.222Z,95.10
